createdAt,value
2022-07-29T00:00:21.661Z,5.30
2022-07-29T00:02:52.011Z,6.28
2022-07-29T00:05:20.099Z,6.03
2022-07-29T00:07:48.325Z,6.05
2022-07-29T00:10:16.165Z,5.38
2022-07-29T00:12:44.071Z,6.30
2022-07-29T00:15:12.298Z,6.57
2022-07-29T00:17:40.173Z,6.80
2022-07-29T00:20:08.728Z,6.80
2022-07-29T00:22:39.806Z,6.95
2022-07-29T00:25:09.222Z,6.28
2022-07-29T00:27:38.274Z,7.03
2022-07-29T00:30:08.614Z,7.60
2022-07-29T00:32:36.616Z,6.20
2022-07-29T00:35:24.705Z,6.60
2022-07-29T00:37:52.820Z,6.30
2022-07-29T00:40:23.557Z,6.20
2022-07-29T00:42:52.772Z,6.30
2022-07-29T00:45:21.140Z,6.70
2022-07-29T00:47:49.610Z,5.82
2022-07-29T00:50:18.012Z,5.93
2022-07-29T00:52:46.062Z,5.88
2022-07-29T00:55:17.041Z,6.53
2022-07-29T00:57:46.103Z,6.45
2022-07-29T01:00:18.432Z,6.57
2022-07-29T01:02:49.304Z,6.07
2022-07-29T01:05:22.194Z,6.28
2022-07-29T01:07:53.548Z,6.38
2022-07-29T01:10:22.930Z,6.32
2022-07-29T01:12:53.833Z,6.63
2022-07-29T01:15:22.389Z,5.88
2022-07-29T01:18:09.840Z,5.55
2022-07-29T01:20:43.951Z,6.10
2022-07-29T01:23:14.586Z,5.97
2022-07-29T01:26:09.392Z,6.93
2022-07-29T01:29:07.571Z,5.95
2022-07-29T01:32:02.571Z,5.88
2022-07-29T01:34:35.661Z,5.90
2022-07-29T01:39:44.299Z,5.75
2022-07-29T01:42:26.625Z,6.15
2022-07-29T01:45:05.505Z,6.25
2022-07-29T01:47:40.128Z,6.22
2022-07-29T01:50:12.336Z,6.05
2022-07-29T01:52:58.139Z,6.23
2022-07-29T01:55:30.659Z,7.63
2022-07-29T01:58:01.103Z,7.03
2022-07-29T02:00:32.800Z,6.38
2022-07-29T02:03:05.161Z,6.30
2022-07-29T02:05:35.199Z,5.88
2022-07-29T02:08:05.269Z,5.65
2022-07-29T02:10:38.217Z,7.03
2022-07-29T02:15:36.583Z,5.20
2022-07-29T02:18:13.968Z,6.53
2022-07-29T02:20:46.840Z,6.32
2022-07-29T02:25:45.893Z,5.75
2022-07-29T02:28:16.169Z,5.78
2022-07-29T02:30:46.650Z,6.10
2022-07-29T02:33:17.010Z,6.40
2022-07-29T02:35:46.172Z,6.50
2022-07-29T02:38:35.840Z,8.05
2022-07-29T02:41:09.070Z,7.25
2022-07-29T02:43:37.692Z,6.72
2022-07-29T02:46:28.124Z,6.45
2022-07-29T02:49:02.511Z,7.50
2022-07-29T02:51:42.571Z,7.78
2022-07-29T02:54:22.427Z,7.30
2022-07-29T02:56:53.708Z,7.25
2022-07-29T02:59:26.148Z,7.50
2022-07-29T03:01:56.595Z,7.25
2022-07-29T03:04:27.046Z,7.70
2022-07-29T03:06:56.128Z,8.85
2022-07-29T03:09:24.710Z,7.20
2022-07-29T03:11:56.796Z,8.35
2022-07-29T03:14:25.402Z,8.68
2022-07-29T03:16:53.660Z,7.07
2022-07-29T03:19:22.245Z,7.45
2022-07-29T03:21:50.505Z,8.07
2022-07-29T03:24:34.750Z,7.10
2022-07-29T03:27:04.059Z,7.40
2022-07-29T03:29:33.622Z,6.78
2022-07-29T03:32:08.067Z,6.97
2022-07-29T03:34:38.582Z,6.57
2022-07-29T03:37:07.273Z,7.13
2022-07-29T03:39:40.932Z,6.93
2022-07-29T03:42:12.939Z,6.30
2022-07-29T03:44:45.149Z,6.82
2022-07-29T03:47:16.006Z,7.22
2022-07-29T03:49:47.703Z,7.40
2022-07-29T03:52:15.872Z,7.28
2022-07-29T03:54:44.164Z,7.22
2022-07-29T03:57:13.039Z,6.68
2022-07-29T03:59:41.469Z,6.72
2022-07-29T04:02:12.150Z,6.47
2022-07-29T04:04:40.137Z,7.05
2022-07-29T04:07:08.075Z,7.22
2022-07-29T04:09:35.845Z,6.53
2022-07-29T04:12:04.494Z,6.90
2022-07-29T04:14:33.929Z,5.97
2022-07-29T04:17:03.341Z,6.93
2022-07-29T04:19:32.295Z,6.80
2022-07-29T04:22:01.106Z,7.20
2022-07-29T04:24:29.210Z,6.45
2022-07-29T04:26:57.209Z,6.45
2022-07-29T04:29:25.083Z,6.65
2022-07-29T04:31:53.012Z,8.20
2022-07-29T04:34:21.242Z,8.15
2022-07-29T04:36:49.118Z,7.68
2022-07-29T04:39:22.686Z,6.53
2022-07-29T04:41:52.535Z,6.40
2022-07-29T04:44:28.638Z,6.20
2022-07-29T04:46:57.903Z,6.80
2022-07-29T04:49:26.259Z,6.85
2022-07-29T04:51:54.220Z,7.18
2022-07-29T04:54:21.996Z,7.68
2022-07-29T04:56:49.845Z,8.57
2022-07-29T04:59:17.679Z,8.95
2022-07-29T05:01:45.763Z,8.15
2022-07-29T05:04:14.111Z,7.40
2022-07-29T05:06:42.164Z,8.40
2022-07-29T05:09:09.960Z,7.18
2022-07-29T05:11:37.840Z,6.68
2022-07-29T05:14:06.047Z,8.05
2022-07-29T05:16:34.485Z,6.97
2022-07-29T05:19:02.526Z,7.00
2022-07-29T05:21:30.317Z,7.05
2022-07-29T05:23:58.264Z,6.72
2022-07-29T05:26:26.183Z,6.03
2022-07-29T05:28:54.918Z,9.75
2022-07-29T05:31:22.807Z,6.10
2022-07-29T05:33:50.717Z,5.53
2022-07-29T05:36:18.671Z,5.32
2022-07-29T05:38:46.848Z,5.30
2022-07-29T05:41:14.704Z,4.47
2022-07-29T05:43:42.696Z,4.65
2022-07-29T05:46:10.726Z,4.30
2022-07-29T05:48:39.917Z,4.20
2022-07-29T05:51:07.758Z,5.22
2022-07-29T05:53:35.616Z,4.93
2022-07-29T05:56:06.866Z,4.28
2022-07-29T05:58:34.855Z,5.13
2022-07-29T06:01:02.784Z,5.00
2022-07-29T06:03:31.309Z,4.20
2022-07-29T06:05:59.212Z,4.40
2022-07-29T06:08:27.235Z,4.68
2022-07-29T06:10:55.376Z,5.07
2022-07-29T06:13:23.240Z,4.75
2022-07-29T06:15:51.569Z,4.75
2022-07-29T06:18:37.917Z,5.00
2022-07-29T06:21:10.751Z,5.00
2022-07-29T06:23:39.663Z,5.53
2022-07-29T06:26:07.725Z,5.20
2022-07-29T06:28:35.623Z,4.55
2022-07-29T06:31:03.614Z,4.72
2022-07-29T06:33:31.525Z,4.90
2022-07-29T06:35:59.335Z,5.18
2022-07-29T06:38:30.962Z,5.22
2022-07-29T06:41:11.185Z,4.50
2022-07-29T06:43:51.918Z,4.20
2022-07-29T06:46:24.103Z,4.68
2022-07-29T06:48:53.312Z,4.00
2022-07-29T06:51:23.917Z,4.07
2022-07-29T06:54:00.305Z,4.43
2022-07-29T06:56:38.554Z,4.75
2022-07-29T06:59:09.637Z,4.43
2022-07-29T07:01:39.082Z,4.85
2022-07-29T07:04:07.356Z,4.35
2022-07-29T07:06:35.567Z,4.55
2022-07-29T07:09:03.640Z,3.90
2022-07-29T07:11:31.758Z,4.53
2022-07-29T07:14:03.343Z,4.55
2022-07-29T07:16:33.023Z,4.30
2022-07-29T07:19:02.008Z,4.50
2022-07-29T07:21:30.953Z,4.10
2022-07-29T07:24:00.005Z,3.80
2022-07-29T07:26:28.717Z,4.13
2022-07-29T07:28:56.673Z,3.95
2022-07-29T07:31:24.723Z,4.90
2022-07-29T07:33:57.008Z,3.97
2022-07-29T07:36:25.035Z,4.93
2022-07-29T07:38:52.994Z,4.18
2022-07-29T07:41:21.596Z,4.82
2022-07-29T07:43:49.661Z,4.53
2022-07-29T07:46:17.885Z,4.30
2022-07-29T07:48:45.924Z,6.57
2022-07-29T07:51:14.085Z,5.10
2022-07-29T07:53:42.016Z,4.80
2022-07-29T07:56:11.794Z,4.65
2022-07-29T07:58:40.979Z,4.07
2022-07-29T08:01:10.021Z,4.32
2022-07-29T08:03:38.702Z,3.83
2022-07-29T08:06:07.036Z,4.05
2022-07-29T08:08:35.066Z,3.72
2022-07-29T08:11:09.144Z,4.20
2022-07-29T08:13:38.788Z,3.92
2022-07-29T08:16:14.394Z,6.63
2022-07-29T08:18:44.469Z,4.85
2022-07-29T08:21:14.789Z,4.32
2022-07-29T08:23:58.665Z,3.67
2022-07-29T08:26:26.810Z,4.47
2022-07-29T08:28:55.118Z,4.10
2022-07-29T08:31:23.201Z,4.75
2022-07-29T08:33:52.261Z,3.78
2022-07-29T08:36:22.050Z,3.60
2022-07-29T08:38:50.735Z,4.60
2022-07-29T08:41:20.385Z,5.15
2022-07-29T08:43:50.158Z,4.15
2022-07-29T08:46:18.678Z,4.07
2022-07-29T08:48:48.263Z,3.53
2022-07-29T08:51:19.025Z,3.97
2022-07-29T08:53:49.389Z,4.07
2022-07-29T08:56:19.092Z,4.03
2022-07-29T08:58:51.712Z,4.18
2022-07-29T09:01:36.462Z,4.15
2022-07-29T09:04:12.826Z,3.90
2022-07-29T09:06:44.950Z,4.15
2022-07-29T09:09:14.727Z,4.93
2022-07-29T09:11:43.780Z,3.65
2022-07-29T09:14:14.386Z,3.33
2022-07-29T09:16:55.477Z,3.92
2022-07-29T09:19:32.808Z,4.25
2022-07-29T09:22:03.261Z,3.42
2022-07-29T09:24:49.725Z,2.92
2022-07-29T09:27:27.065Z,3.30
2022-07-29T09:30:11.463Z,2.67
2022-07-29T09:33:02.267Z,2.90
2022-07-29T09:35:31.276Z,2.60
2022-07-29T09:38:10.544Z,3.08
2022-07-29T09:40:38.689Z,3.20
2022-07-29T09:43:13.913Z,2.90
2022-07-29T09:45:42.190Z,2.90
2022-07-29T09:48:21.569Z,2.63
2022-07-29T09:50:50.806Z,3.47
2022-07-29T09:53:37.472Z,3.88
2022-07-29T09:56:06.693Z,3.00
2022-07-29T09:58:34.982Z,3.65
2022-07-29T10:01:04.352Z,3.60
2022-07-29T10:03:32.306Z,3.63
2022-07-29T10:06:14.622Z,2.85
2022-07-29T10:08:42.986Z,3.22
2022-07-29T10:11:14.921Z,3.10
2022-07-29T10:16:12.155Z,3.45
2022-07-29T10:18:44.736Z,3.20
2022-07-29T10:21:35.404Z,3.60
2022-07-29T10:24:02.217Z,3.20
2022-07-29T10:26:31.434Z,3.03
2022-07-29T10:28:59.322Z,3.28
2022-07-29T10:32:05.707Z,3.70
2022-07-29T10:35:00.254Z,3.33
2022-07-29T10:37:45.921Z,3.40
2022-07-29T10:40:57.291Z,3.40
2022-07-29T10:43:36.898Z,3.10
2022-07-29T10:46:07.344Z,2.75
2022-07-29T10:48:36.090Z,2.97
2022-07-29T10:51:09.328Z,2.90
2022-07-29T10:53:54.225Z,2.50
2022-07-29T10:56:31.875Z,3.00
2022-07-29T10:59:22.762Z,2.90
2022-07-29T11:01:53.540Z,3.00
2022-07-29T11:04:48.561Z,2.90
2022-07-29T11:07:18.372Z,2.90
2022-07-29T11:10:12.595Z,2.92
2022-07-29T11:12:42.012Z,2.80
2022-07-29T11:15:19.878Z,2.95
2022-07-29T11:17:53.993Z,2.80
2022-07-29T11:20:49.684Z,2.63
2022-07-29T11:23:27.526Z,2.50
2022-07-29T11:26:21.152Z,3.00
2022-07-29T11:29:12.049Z,3.00
2022-07-29T11:31:55.497Z,3.05
2022-07-29T11:34:27.983Z,2.65
2022-07-29T11:37:17.808Z,3.13
2022-07-29T11:40:01.508Z,2.20
2022-07-29T11:42:41.739Z,2.92
2022-07-29T11:45:42.592Z,2.63
2022-07-29T11:48:31.645Z,3.08
2022-07-29T11:51:00.708Z,2.65
2022-07-29T11:53:32.948Z,3.00
2022-07-29T11:56:02.624Z,2.83
2022-07-29T11:58:32.266Z,2.50
2022-07-29T12:01:04.627Z,2.83
2022-07-29T12:03:35.939Z,2.60
2022-07-29T12:06:15.050Z,2.40
2022-07-29T12:08:44.371Z,3.33
2022-07-29T12:11:37.681Z,2.63
2022-07-29T12:14:08.555Z,2.58
2022-07-29T12:16:38.257Z,2.67
2022-07-29T12:19:06.321Z,2.80
2022-07-29T12:21:56.341Z,3.28
2022-07-29T12:24:26.796Z,2.50
2022-07-29T12:26:59.268Z,2.90
2022-07-29T12:32:05.386Z,3.00
2022-07-29T12:34:34.719Z,2.85
2022-07-29T12:37:03.242Z,3.28
2022-07-29T12:39:31.274Z,3.45
2022-07-29T12:42:04.085Z,3.63
2022-07-29T12:44:50.054Z,3.65
2022-07-29T12:47:19.350Z,3.80
2022-07-29T12:49:47.954Z,3.40
2022-07-29T12:52:34.382Z,3.40
2022-07-29T12:55:02.933Z,3.22
2022-07-29T12:57:32.995Z,4.72
2022-07-29T13:00:11.595Z,3.33
2022-07-29T13:02:40.243Z,4.07
2022-07-29T13:05:09.879Z,3.08
2022-07-29T13:08:29.490Z,3.50
2022-07-29T13:10:26.242Z,3.30
2022-07-29T13:13:10.590Z,3.65
2022-07-29T13:15:41.180Z,3.40
2022-07-29T13:18:47.628Z,3.58
2022-07-29T13:21:16.817Z,3.70
2022-07-29T13:23:46.958Z,3.78
2022-07-29T13:26:17.214Z,3.47
2022-07-29T13:28:45.071Z,3.75
2022-07-29T13:31:13.065Z,3.22
2022-07-29T13:33:40.983Z,3.55
2022-07-29T13:36:08.920Z,3.55
2022-07-29T13:38:36.713Z,3.92
2022-07-29T13:41:04.612Z,3.97
2022-07-29T13:43:33.468Z,3.67
2022-07-29T13:46:01.381Z,3.22
2022-07-29T13:48:29.289Z,3.25
2022-07-29T13:50:57.936Z,3.50
2022-07-29T13:53:29.658Z,3.63
2022-07-29T13:55:57.537Z,3.40
2022-07-29T13:58:25.547Z,4.28
2022-07-29T14:00:53.493Z,3.90
2022-07-29T14:03:21.486Z,3.67
2022-07-29T14:05:49.331Z,3.65
2022-07-29T14:08:17.163Z,3.92
2022-07-29T14:10:45.553Z,3.45
2022-07-29T14:13:24.650Z,3.80
2022-07-29T14:15:53.931Z,3.25
2022-07-29T14:18:21.889Z,3.58
2022-07-29T14:20:50.539Z,3.33
2022-07-29T14:23:20.123Z,4.35
2022-07-29T14:25:49.402Z,4.10
2022-07-29T14:28:17.899Z,3.63
2022-07-29T14:30:45.857Z,3.42
2022-07-29T14:33:13.819Z,4.00
2022-07-29T14:35:41.670Z,3.78
2022-07-29T14:38:09.587Z,3.80
2022-07-29T14:40:37.657Z,3.83
2022-07-29T14:43:05.617Z,3.50
2022-07-29T14:45:33.610Z,3.58
2022-07-29T14:48:01.576Z,3.80
2022-07-29T14:50:32.412Z,4.10
2022-07-29T14:53:01.226Z,3.95
2022-07-29T14:55:29.706Z,4.05
2022-07-29T14:58:06.014Z,3.80
2022-07-29T15:00:37.926Z,3.80
2022-07-29T15:03:06.507Z,4.57
2022-07-29T15:05:39.714Z,3.42
2022-07-29T15:08:09.192Z,3.30
2022-07-29T15:10:37.446Z,3.55
2022-07-29T15:13:05.354Z,3.83
2022-07-29T15:15:33.271Z,3.70
2022-07-29T15:18:01.169Z,3.67
2022-07-29T15:20:29.218Z,3.42
2022-07-29T15:22:57.527Z,4.40
2022-07-29T15:25:28.381Z,4.32
2022-07-29T15:28:01.249Z,3.83
2022-07-29T15:30:33.381Z,3.70
2022-07-29T15:33:04.048Z,3.67
2022-07-29T15:35:32.626Z,3.67
2022-07-29T15:38:00.501Z,3.60
2022-07-29T15:40:28.623Z,4.13
2022-07-29T15:42:56.545Z,3.60
2022-07-29T15:45:24.464Z,3.17
2022-07-29T15:47:52.320Z,3.58
2022-07-29T15:50:21.264Z,3.53
2022-07-29T15:52:49.223Z,3.80
2022-07-29T15:55:17.162Z,3.63
2022-07-29T15:57:45.088Z,3.60
2022-07-29T16:00:18.172Z,4.18
2022-07-29T16:02:46.268Z,3.63
2022-07-29T16:05:14.297Z,3.80
2022-07-29T16:07:42.272Z,3.72
2022-07-29T16:10:10.222Z,3.38
2022-07-29T16:12:38.943Z,3.10
2022-07-29T16:15:10.440Z,3.58
2022-07-29T16:17:42.282Z,3.25
2022-07-29T16:22:42.194Z,3.50
2022-07-29T16:25:10.243Z,3.55
2022-07-29T16:27:38.413Z,3.08
2022-07-29T16:40:20.232Z,3.13
2022-07-29T16:42:48.089Z,3.40
2022-07-29T16:45:18.066Z,3.20
2022-07-29T16:47:49.631Z,3.45
2022-07-29T16:50:17.915Z,3.13
2022-07-29T16:52:45.776Z,3.47
2022-07-29T16:55:13.601Z,3.53
2022-07-29T16:57:42.800Z,3.00
2022-07-29T17:00:11.404Z,3.03
2022-07-29T17:02:39.248Z,3.15
2022-07-29T17:05:08.326Z,3.40
2022-07-29T17:07:36.551Z,3.72
2022-07-29T17:10:05.392Z,2.92
2022-07-29T17:12:33.634Z,3.50
2022-07-29T17:15:01.438Z,3.45
2022-07-29T17:17:38.932Z,3.55
2022-07-29T17:20:09.183Z,3.00
2022-07-29T17:22:38.243Z,2.97
2022-07-29T17:25:08.208Z,3.80
2022-07-29T17:27:36.968Z,3.63
2022-07-29T17:30:06.400Z,2.97
2022-07-29T17:32:38.836Z,3.88
2022-07-29T17:35:25.738Z,3.35
2022-07-29T17:37:53.930Z,3.60
2022-07-29T17:40:21.987Z,3.97
2022-07-29T17:42:49.910Z,3.42
2022-07-29T17:45:18.079Z,3.40
2022-07-29T17:47:46.015Z,3.65
2022-07-29T17:50:13.861Z,3.22
2022-07-29T17:52:41.972Z,4.15
2022-07-29T17:55:10.627Z,3.25
2022-07-29T17:57:38.582Z,3.42
2022-07-29T18:00:08.172Z,4.50
2022-07-29T18:02:37.771Z,4.78
2022-07-29T18:05:06.066Z,3.95
2022-07-29T18:07:33.928Z,4.30
2022-07-29T18:10:01.959Z,6.10
2022-07-29T18:12:31.014Z,4.43
2022-07-29T18:14:58.851Z,4.30
2022-07-29T18:17:52.684Z,4.60
2022-07-29T18:20:15.002Z,4.28
2022-07-29T18:22:42.897Z,3.35
2022-07-29T18:25:11.956Z,5.20
2022-07-29T18:27:39.912Z,6.78
2022-07-29T18:30:08.234Z,8.77
2022-07-29T18:32:36.604Z,3.45
2022-07-29T18:35:05.885Z,4.00
2022-07-29T18:38:00.815Z,4.35
2022-07-29T18:40:26.516Z,4.20
2022-07-29T18:42:57.665Z,4.60
2022-07-29T18:45:28.261Z,4.18
2022-07-29T18:47:57.080Z,3.92
2022-07-29T18:50:50.876Z,4.20
2022-07-29T18:53:18.785Z,3.38
2022-07-29T18:55:46.794Z,3.90
2022-07-29T18:58:14.661Z,3.95
2022-07-29T19:00:42.557Z,4.43
2022-07-29T19:03:10.526Z,4.32
2022-07-29T19:05:38.564Z,4.10
2022-07-29T19:08:06.855Z,4.75
2022-07-29T19:10:34.803Z,6.68
2022-07-29T19:13:02.729Z,5.95
2022-07-29T19:15:55.518Z,4.72
2022-07-29T19:18:23.566Z,4.90
2022-07-29T19:20:51.430Z,4.25
2022-07-29T19:23:19.746Z,4.18
2022-07-29T19:25:53.717Z,4.00
2022-07-29T19:28:22.392Z,4.22
2022-07-29T19:30:50.459Z,4.15
2022-07-29T19:33:19.109Z,4.25
2022-07-29T19:35:50.376Z,4.07
2022-07-29T19:38:21.007Z,4.47
2022-07-29T19:40:49.014Z,4.00
2022-07-29T19:43:51.499Z,3.85
2022-07-29T19:46:05.120Z,3.97
2022-07-29T19:48:32.965Z,3.75
2022-07-29T19:51:00.909Z,3.47
2022-07-29T19:53:29.053Z,3.58
2022-07-29T19:55:57.097Z,4.07
2022-07-29T19:58:26.912Z,3.67
2022-07-29T20:00:55.439Z,3.97
2022-07-29T20:03:23.457Z,4.30
2022-07-29T20:05:52.832Z,5.03
2022-07-29T20:08:20.636Z,3.70
2022-07-29T20:10:48.516Z,4.55
2022-07-29T20:13:16.511Z,3.97
2022-07-29T20:15:44.525Z,4.30
2022-07-29T20:18:12.416Z,4.90
2022-07-29T20:20:40.246Z,4.50
2022-07-29T20:23:08.198Z,4.40
2022-07-29T20:25:36.813Z,4.72
2022-07-29T20:28:04.873Z,8.13
2022-07-29T20:30:32.682Z,8.10
2022-07-29T20:33:00.795Z,6.68
2022-07-29T20:35:28.711Z,5.35
2022-07-29T20:37:56.745Z,5.38
2022-07-29T20:40:25.939Z,6.03
2022-07-29T20:42:55.036Z,5.82
2022-07-29T20:45:23.687Z,5.15
2022-07-29T20:47:52.657Z,5.50
2022-07-29T20:50:23.860Z,4.45
2022-07-29T20:52:52.960Z,4.95
2022-07-29T20:55:21.245Z,4.88
2022-07-29T20:57:49.298Z,4.20
2022-07-29T21:00:17.391Z,5.72
2022-07-29T21:02:45.408Z,4.70
2022-07-29T21:05:13.333Z,4.25
2022-07-29T21:07:41.416Z,5.22
2022-07-29T21:10:09.618Z,4.57
2022-07-29T21:12:39.855Z,4.85
2022-07-29T21:15:08.422Z,4.75
2022-07-29T21:17:38.891Z,4.50
2022-07-29T21:20:08.665Z,5.00
2022-07-29T21:22:36.702Z,4.57
2022-07-29T21:25:05.068Z,5.07
2022-07-29T21:27:51.335Z,4.40
2022-07-29T21:30:19.274Z,4.72
2022-07-29T21:32:47.230Z,4.85
2022-07-29T21:35:30.300Z,4.68
2022-07-29T21:38:02.948Z,4.63
2022-07-29T21:40:30.866Z,4.70
2022-07-29T21:42:58.735Z,4.45
2022-07-29T21:45:27.389Z,4.65
2022-07-29T21:47:55.313Z,5.10
2022-07-29T21:50:23.166Z,4.15
2022-07-29T21:52:51.028Z,5.00
2022-07-29T21:55:19.313Z,4.93
2022-07-29T21:57:49.840Z,5.00
2022-07-29T22:00:17.796Z,5.95
2022-07-29T22:02:45.797Z,5.10
2022-07-29T22:05:14.970Z,4.70
2022-07-29T22:07:56.563Z,5.85
2022-07-29T22:10:26.853Z,4.82
2022-07-29T22:12:57.790Z,5.32
2022-07-29T22:15:29.185Z,5.20
2022-07-29T22:17:57.451Z,5.25
2022-07-29T22:20:25.677Z,5.25
2022-07-29T22:22:54.490Z,5.95
2022-07-29T22:25:22.799Z,6.10
2022-07-29T22:27:50.770Z,5.47
2022-07-29T22:30:18.998Z,6.10
2022-07-29T22:32:47.962Z,5.22
2022-07-29T22:35:16.693Z,5.15
2022-07-29T22:37:44.781Z,4.20
2022-07-29T22:40:12.716Z,5.15
2022-07-29T22:42:40.767Z,5.38
2022-07-29T22:45:10.382Z,5.05
2022-07-29T22:47:46.537Z,5.50
2022-07-29T22:50:17.176Z,5.65
2022-07-29T22:52:46.336Z,5.80
2022-07-29T22:55:14.604Z,5.43
2022-07-29T22:57:42.588Z,6.20
2022-07-29T23:00:11.334Z,6.18
2022-07-29T23:02:41.625Z,5.45
2022-07-29T23:05:10.803Z,5.50
2022-07-29T23:07:40.323Z,5.03
2022-07-29T23:10:11.170Z,6.15
2022-07-29T23:12:39.010Z,6.30
2022-07-29T23:15:07.840Z,5.43
2022-07-29T23:17:36.779Z,4.75
2022-07-29T23:20:10.974Z,5.82
2022-07-29T23:22:45.500Z,5.25
2022-07-29T23:25:13.433Z,5.22
2022-07-29T23:27:42.911Z,4.85
2022-07-29T23:30:12.131Z,5.50
2022-07-29T23:32:40.202Z,4.75
2022-07-29T23:35:08.757Z,5.78
2022-07-29T23:37:37.049Z,5.13
2022-07-29T23:40:06.239Z,5.25
2022-07-29T23:42:35.642Z,5.80
2022-07-29T23:45:04.528Z,6.07
2022-07-29T23:47:37.858Z,5.70
2022-07-29T23:50:12.006Z,6.15
2022-07-29T23:52:40.942Z,6.88
2022-07-29T23:55:36.480Z,5.78
2022-07-29T23:57:57.953Z,5.70
